Time;durP1;ratioP1;P1;durP2;ratioP2;P2;SDS_P1;SDS_P2;PMS_P1;PMS_P2;Temp;Humidity;BMP_temperature;BMP_pressure;BME280_temperature;BME280_humidity;BME280_pressure;Samples;Min_cycle;Max_cycle;Signal;HPM_P1;HPM_P2
2022/05/09 00:01:13;;;;;;;10.40;5.15;;;6.30;99.90;;;;;;4996803;28;20120;-82
2022/05/09 00:03:40;;;;;;;12.30;4.95;;;6.20;99.90;;;;;;5032562;23;20850;-77
2022/05/09 00:06:05;;;;;;;13.70;4.90;;;6.20;99.90;;;;;;4993663;28;20054;-77
2022/05/09 00:08:34;;;;;;;14.82;5.20;;;6.20;99.90;;;;;;4989805;28;20092;-77
2022/05/09 00:11:00;;;;;;;11.68;4.72;;;6.10;99.90;;;;;;4961340;28;20125;-78
2022/05/09 00:13:26;;;;;;;14.80;5.20;;;6.10;99.90;;;;;;4972669;28;20180;-77
2022/05/09 00:15:52;;;;;;;16.38;5.53;;;6.10;99.90;;;;;;5005153;28;20369;-77
2022/05/09 00:18:20;;;;;;;12.10;4.82;;;6.10;99.90;;;;;;4994327;28;20040;-77
2022/05/09 00:20:46;;;;;;;16.65;5.25;;;6.00;99.90;;;;;;4974778;28;21782;-78
2022/05/09 00:23:13;;;;;;;13.38;5.20;;;6.00;99.90;;;;;;4976206;28;20563;-77
2022/05/09 00:25:39;;;;;;;13.07;5.10;;;6.00;99.90;;;;;;4956164;28;20120;-77
2022/05/09 00:28:04;;;;;;;19.48;5.72;;;6.00;99.90;;;;;;4990351;28;20054;-77
2022/05/09 00:30:31;;;;;;;15.35;5.55;;;5.90;99.90;;;;;;4971705;28;20038;-77
2022/05/09 00:32:56;;;;;;;22.00;5.35;;;5.90;99.90;;;;;;4990501;28;20042;-77
2022/05/09 00:35:22;;;;;;;18.42;5.45;;;5.90;99.90;;;;;;4997027;28;20129;-77
2022/05/09 00:37:48;;;;;;;19.45;6.43;;;5.90;99.90;;;;;;4992507;28;20038;-77
2022/05/09 00:40:16;;;;;;;15.45;5.57;;;5.80;99.90;;;;;;4964305;28;20046;-77
2022/05/09 00:42:48;;;;;;;12.18;4.90;;;5.80;99.90;;;;;;4987757;28;21997;-77
2022/05/09 00:45:14;;;;;;;17.48;5.43;;;5.80;99.90;;;;;;4984736;28;20116;-77
2022/05/09 00:47:40;;;;;;;16.45;5.57;;;5.70;99.90;;;;;;4983680;28;20063;-77
2022/05/09 00:50:08;;;;;;;17.35;5.47;;;5.70;99.90;;;;;;4969696;28;20535;-77
2022/05/09 00:52:51;;;;;;;13.13;5.28;;;5.70;99.90;;;;;;4991404;28;20041;-77
2022/05/09 00:55:35;;;;;;;20.08;5.75;;;5.70;99.90;;;;;;4988963;28;20518;-78
2022/05/09 00:58:11;;;;;;;15.95;5.38;;;5.70;99.90;;;;;;4985327;28;20049;-77
2022/05/09 01:00:38;;;;;;;14.30;5.50;;;5.70;99.90;;;;;;4983123;28;20049;-77
2022/05/09 01:03:13;;;;;;;12.30;5.30;;;5.70;99.90;;;;;;4986759;28;20038;-76
2022/05/09 01:05:42;;;;;;;13.57;5.03;;;5.60;99.90;;;;;;4982996;28;20065;-77
2022/05/09 01:08:08;;;;;;;15.30;5.07;;;5.60;99.90;;;;;;5006346;28;20618;-77
2022/05/09 01:10:38;;;;;;;14.52;5.78;;;5.60;99.90;;;;;;4989396;28;20567;-77
2022/05/09 01:13:08;;;;;;;16.55;5.55;;;5.60;99.90;;;;;;4988939;28;20034;-77
2022/05/09 01:15:34;;;;;;;17.65;6.28;;;5.50;99.90;;;;;;4972673;28;20077;-77
2022/05/09 01:18:03;;;;;;;16.65;5.60;;;5.50;99.90;;;;;;4974806;28;20068;-77
2022/05/09 01:20:30;;;;;;;19.20;5.55;;;5.50;99.90;;;;;;4988864;28;20763;-77
2022/05/09 01:22:57;;;;;;;12.88;5.43;;;5.40;99.90;;;;;;4990868;28;20034;-77
2022/05/09 01:25:23;;;;;;;21.05;6.75;;;5.40;99.90;;;;;;4981741;28;20107;-77
2022/05/09 01:27:49;;;;;;;14.25;5.38;;;5.30;99.90;;;;;;4974970;28;20029;-77
2022/05/09 01:30:26;;;;;;;14.57;5.88;;;5.30;99.90;;;;;;5008584;28;20558;-77
2022/05/09 01:32:59;;;;;;;18.50;5.75;;;5.30;99.90;;;;;;5008512;28;20050;-78
2022/05/09 01:35:39;;;;;;;12.85;6.00;;;5.30;99.90;;;;;;5005141;28;20060;-77
2022/05/09 01:38:17;;;;;;;19.60;5.60;;;5.30;99.90;;;;;;4985941;28;20081;-77
2022/05/09 01:40:43;;;;;;;16.65;5.63;;;5.30;99.90;;;;;;5007287;28;20091;-77
2022/05/09 01:43:09;;;;;;;18.08;6.70;;;5.50;99.90;;;;;;4991190;28;20033;-78
2022/05/09 01:45:35;;;;;;;14.60;6.20;;;5.20;99.90;;;;;;4983732;28;20125;-77
2022/05/09 01:50:45;;;;;;;15.10;5.93;;;5.20;99.90;;;;;;4986783;28;20443;-77
2022/05/09 01:53:11;;;;;;;18.75;6.45;;;5.20;99.90;;;;;;4975723;28;20141;-77
2022/05/09 01:55:37;;;;;;;15.75;5.50;;;5.20;99.90;;;;;;4974275;28;20045;-77
2022/05/09 01:58:04;;;;;;;17.73;6.40;;;5.30;99.90;;;;;;5008465;28;20042;-77
2022/05/09 02:00:32;;;;;;;17.38;5.95;;;5.20;99.90;;;;;;4981548;28;20049;-77
2022/05/09 02:03:00;;;;;;;18.90;6.15;;;5.20;99.90;;;;;;4990042;28;20058;-77
2022/05/09 02:05:26;;;;;;;16.63;6.07;;;5.20;99.90;;;;;;4988603;28;20049;-77
2022/05/09 02:07:53;;;;;;;13.13;6.50;;;5.20;99.90;;;;;;4988560;28;20049;-77
2022/05/09 02:10:19;;;;;;;12.02;6.07;;;5.20;99.90;;;;;;4990332;28;20073;-77
2022/05/09 02:12:45;;;;;;;14.43;5.82;;;5.10;99.90;;;;;;4985678;28;20752;-77
2022/05/09 02:15:11;;;;;;;14.20;6.32;;;5.10;99.90;;;;;;4988510;28;20037;-77
2022/05/09 02:17:38;;;;;;;13.35;5.85;;;5.10;99.90;;;;;;5006170;28;20037;-77
2022/05/09 02:20:05;;;;;;;20.15;6.45;;;5.10;99.90;;;;;;4972557;28;20037;-77
2022/05/09 02:22:32;;;;;;;15.55;6.60;;;5.00;99.90;;;;;;4971243;28;20041;-77
2022/05/09 02:24:58;;;;;;;14.18;6.25;;;5.00;99.90;;;;;;4988068;28;20041;-77
2022/05/09 02:27:24;;;;;;;13.30;6.30;;;5.10;99.90;;;;;;4988082;28;20654;-77
2022/05/09 02:29:50;;;;;;;15.20;6.43;;;5.00;99.90;;;;;;4970912;28;20112;-77
2022/05/09 02:32:16;;;;;;;15.50;6.20;;;5.00;99.90;;;;;;4995179;28;20172;-77
2022/05/09 02:34:42;;;;;;;18.10;5.82;;;5.00;99.90;;;;;;4968796;28;20050;-77
2022/05/09 02:37:08;;;;;;;17.20;7.00;;;5.00;99.90;;;;;;4990002;28;20116;-77
2022/05/09 02:39:34;;;;;;;13.82;6.40;;;5.00;99.90;;;;;;5002814;28;20106;-77
2022/05/09 02:42:00;;;;;;;15.65;6.50;;;5.00;99.90;;;;;;4972882;28;20030;-77
2022/05/09 02:44:27;;;;;;;20.52;6.90;;;5.00;99.90;;;;;;4986360;28;20046;-77
2022/05/09 02:46:53;;;;;;;16.88;7.18;;;4.90;99.90;;;;;;4971456;28;20030;-77
2022/05/09 02:49:19;;;;;;;16.30;5.78;;;4.90;99.90;;;;;;4989880;28;20059;-77
2022/05/09 02:51:48;;;;;;;17.33;6.80;;;4.90;99.90;;;;;;4988807;28;20041;-77
2022/05/09 02:54:14;;;;;;;19.10;6.93;;;4.80;99.90;;;;;;4982903;28;20767;-77
2022/05/09 02:56:40;;;;;;;14.13;6.65;;;4.80;99.90;;;;;;4968417;28;20084;-77
2022/05/09 02:59:05;;;;;;;18.00;7.03;;;4.80;99.90;;;;;;4971780;28;20041;-77
2022/05/09 03:01:31;;;;;;;14.75;6.53;;;4.80;99.90;;;;;;4990478;28;20053;-76
2022/05/09 03:06:41;;;;;;;19.25;6.97;;;4.80;99.90;;;;;;4972116;28;20034;-77
2022/05/09 03:09:07;;;;;;;19.00;7.50;;;4.80;99.90;;;;;;4973357;28;20509;-77
2022/05/09 03:11:32;;;;;;;22.95;7.15;;;4.80;99.90;;;;;;4990315;28;20044;-77
2022/05/09 03:13:58;;;;;;;21.40;6.93;;;4.70;99.90;;;;;;4974004;28;20136;-77
2022/05/09 03:16:24;;;;;;;23.92;6.85;;;4.70;99.90;;;;;;4972352;28;20389;-77
2022/05/09 03:18:51;;;;;;;16.08;6.97;;;4.70;99.90;;;;;;4969325;28;20120;-77
2022/05/09 03:21:17;;;;;;;19.88;7.55;;;4.70;99.90;;;;;;4971726;28;20042;-77
2022/05/09 03:23:43;;;;;;;21.15;8.13;;;4.70;99.90;;;;;;4986721;28;20044;-78
2022/05/09 03:26:08;;;;;;;14.57;6.85;;;4.60;99.90;;;;;;4954094;28;20049;-77
2022/05/09 03:28:34;;;;;;;18.15;7.15;;;4.60;99.90;;;;;;4987829;28;20261;-77
2022/05/09 03:31:00;;;;;;;20.77;7.18;;;4.60;99.90;;;;;;4967002;28;20510;-77
2022/05/09 03:33:27;;;;;;;16.60;6.68;;;4.60;99.90;;;;;;4970211;28;20100;-77
2022/05/09 03:35:54;;;;;;;18.85;7.43;;;4.60;99.90;;;;;;4971201;28;20041;-77
2022/05/09 03:38:20;;;;;;;21.95;7.00;;;4.60;99.90;;;;;;4980572;28;20041;-77
2022/05/09 03:40:46;;;;;;;23.20;7.60;;;4.50;99.90;;;;;;4991494;28;20534;-77
2022/05/09 03:43:12;;;;;;;22.17;7.63;;;4.50;99.90;;;;;;5002486;28;20549;-77
2022/05/09 03:45:45;;;;;;;15.80;8.02;;;4.50;99.90;;;;;;4970873;28;20092;-78
2022/05/09 03:48:11;;;;;;;12.68;7.03;;;4.40;99.90;;;;;;4981595;28;21494;-77
2022/05/09 03:50:37;;;;;;;22.30;8.35;;;4.40;99.90;;;;;;4987381;28;20033;-78
2022/05/09 03:53:03;;;;;;;18.48;7.88;;;4.40;99.90;;;;;;5000137;28;20036;-77
2022/05/09 03:55:28;;;;;;;16.50;7.25;;;4.40;99.90;;;;;;4987253;28;20049;-77
2022/05/09 03:57:56;;;;;;;18.75;7.60;;;4.40;99.90;;;;;;4998699;28;20041;-77
2022/05/09 04:00:24;;;;;;;17.60;7.82;;;4.40;99.90;;;;;;4975492;28;20034;-77
2022/05/09 04:02:51;;;;;;;17.08;7.90;;;4.40;99.90;;;;;;5022271;28;20052;-76
2022/05/09 04:05:17;;;;;;;18.50;8.23;;;4.40;99.90;;;;;;4985849;28;20046;-77
2022/05/09 04:07:48;;;;;;;20.88;7.68;;;4.40;99.90;;;;;;4964469;28;20053;-77
2022/05/09 04:10:18;;;;;;;27.58;7.70;;;4.50;99.90;;;;;;4958238;28;20491;-78
2022/05/09 04:12:44;;;;;;;15.68;7.47;;;4.40;99.90;;;;;;4959395;28;20133;-77
2022/05/09 04:17:55;;;;;;;16.58;8.27;;;4.30;99.90;;;;;;4984575;28;20463;-77
2022/05/09 04:20:23;;;;;;;21.48;8.15;;;4.40;99.90;;;;;;4963960;28;20046;-77
2022/05/09 04:22:49;;;;;;;23.02;8.10;;;4.40;99.90;;;;;;4965078;28;20042;-78
2022/05/09 04:25:15;;;;;;;15.90;8.00;;;4.40;99.90;;;;;;4965437;28;20070;-77
2022/05/09 04:27:41;;;;;;;18.55;7.90;;;4.40;99.90;;;;;;4950397;28;20109;-77
2022/05/09 04:30:09;;;;;;;17.33;7.32;;;4.40;99.90;;;;;;4971120;28;20401;-77
2022/05/09 04:32:40;;;;;;;20.05;7.53;;;4.40;99.90;;;;;;4969841;28;20034;-77
2022/05/09 04:35:11;;;;;;;20.38;7.80;;;4.40;99.90;;;;;;4952284;28;20518;-77
2022/05/09 04:37:39;;;;;;;21.60;8.38;;;4.40;99.90;;;;;;4982155;28;20038;-77
2022/05/09 04:40:06;;;;;;;16.58;7.47;;;4.40;99.90;;;;;;4951130;28;20050;-77
2022/05/09 04:42:32;;;;;;;16.90;8.35;;;4.50;99.90;;;;;;4985015;28;20089;-78
2022/05/09 04:44:57;;;;;;;24.27;8.63;;;4.50;99.90;;;;;;4949977;28;20042;-77
2022/05/09 04:47:23;;;;;;;15.52;8.20;;;4.50;99.90;;;;;;4950430;28;20130;-77
2022/05/09 04:49:49;;;;;;;16.10;7.60;;;4.50;99.90;;;;;;4954011;28;20034;-77
2022/05/09 04:52:15;;;;;;;15.85;6.38;;;4.60;99.90;;;;;;4968941;28;20885;-78
2022/05/09 04:54:41;;;;;;;15.32;7.18;;;4.60;99.90;;;;;;4954793;28;20400;-77
2022/05/09 04:57:06;;;;;;;17.33;7.45;;;4.60;99.90;;;;;;4951369;28;20045;-77
2022/05/09 04:59:32;;;;;;;15.07;7.53;;;4.70;99.90;;;;;;4970878;28;20106;-77
2022/05/09 05:01:58;;;;;;;21.48;8.30;;;4.70;99.90;;;;;;4951661;28;20157;-77
2022/05/09 05:04:23;;;;;;;16.02;7.80;;;4.70;99.90;;;;;;4975011;28;20050;-77
2022/05/09 05:06:49;;;;;;;23.15;8.20;;;4.80;99.90;;;;;;4958715;28;20042;-77
2022/05/09 05:09:15;;;;;;;26.00;8.95;;;4.80;99.90;;;;;;4982957;28;20041;-77
2022/05/09 05:11:43;;;;;;;22.00;8.18;;;4.80;99.90;;;;;;4992922;28;20037;-77
2022/05/09 05:14:09;;;;;;;18.13;8.50;;;4.90;99.90;;;;;;4992250;28;20129;-77
2022/05/09 05:19:19;;;;;;;16.65;8.35;;;5.00;99.90;;;;;;4974162;28;20042;-77
2022/05/09 05:21:44;;;;;;;14.15;8.30;;;5.00;99.90;;;;;;4987143;28;20053;-77
2022/05/09 05:24:10;;;;;;;20.33;8.43;;;5.10;99.90;;;;;;4973722;28;20038;-77
2022/05/09 05:26:36;;;;;;;18.13;9.48;;;5.10;99.90;;;;;;4975478;28;20042;-77
2022/05/09 05:29:02;;;;;;;16.83;8.77;;;5.20;99.90;;;;;;4974634;28;20053;-78
2022/05/09 05:31:28;;;;;;;19.10;8.98;;;5.20;99.90;;;;;;4976002;28;20038;-77
2022/05/09 05:33:55;;;;;;;18.05;9.18;;;5.30;99.90;;;;;;4982133;28;20537;-77
2022/05/09 05:36:21;;;;;;;20.08;7.90;;;5.30;99.90;;;;;;5004874;28;20034;-77
2022/05/09 05:38:51;;;;;;;19.27;8.68;;;5.40;99.90;;;;;;4990427;28;20045;-77
2022/05/09 05:41:22;;;;;;;16.52;7.90;;;5.40;99.90;;;;;;4973710;28;20033;-77
2022/05/09 05:43:48;;;;;;;18.60;8.70;;;5.50;99.90;;;;;;4973699;28;20164;-77
2022/05/09 05:46:17;;;;;;;22.45;9.95;;;5.80;99.90;;;;;;4972294;28;20121;-77
2022/05/09 05:48:45;;;;;;;18.65;8.18;;;5.60;99.90;;;;;;4987193;28;20038;-77
2022/05/09 05:51:14;;;;;;;19.65;9.00;;;5.70;99.90;;;;;;4979776;28;20042;-77
2022/05/09 05:53:40;;;;;;;17.85;9.20;;;5.80;99.90;;;;;;5002694;28;20049;-78
2022/05/09 05:56:06;;;;;;;21.65;9.70;;;5.90;99.90;;;;;;4987458;28;20037;-77
2022/05/09 05:58:33;;;;;;;34.88;10.13;;;6.20;99.90;;;;;;4988420;28;20042;-77
2022/05/09 06:00:59;;;;;;;22.67;9.35;;;6.10;99.90;;;;;;4986308;28;20120;-78
2022/05/09 06:03:26;;;;;;;20.77;9.77;;;6.20;99.90;;;;;;4988943;28;20505;-77
2022/05/09 06:05:51;;;;;;;21.25;9.80;;;6.30;99.90;;;;;;4987787;28;20516;-77
2022/05/09 06:08:17;;;;;;;22.48;10.90;;;6.40;99.90;;;;;;4974047;28;20038;-77
2022/05/09 06:10:43;;;;;;;22.40;9.60;;;6.50;99.90;;;;;;4999962;28;20246;-78
2022/05/09 06:13:09;;;;;;;23.48;8.90;;;6.70;99.90;;;;;;4951973;28;20026;-78
2022/05/09 06:15:36;;;;;;;19.05;9.35;;;6.80;99.90;;;;;;5003681;28;20057;-77
2022/05/09 06:18:12;;;;;;;26.10;9.70;;;6.90;99.90;;;;;;4990614;28;20069;-77
2022/05/09 06:20:41;;;;;;;16.02;8.35;;;7.00;99.90;;;;;;4987226;28;20038;-77
2022/05/09 06:23:08;;;;;;;23.13;9.50;;;7.10;99.90;;;;;;4971009;28;20397;-77
2022/05/09 06:25:34;;;;;;;21.15;8.73;;;7.30;99.90;;;;;;4985924;28;20094;-77
2022/05/09 06:28:02;;;;;;;19.63;9.60;;;7.40;99.90;;;;;;4981710;28;20511;-77
2022/05/09 06:30:28;;;;;;;26.92;9.68;;;7.60;99.90;;;;;;4992155;28;20283;-77
2022/05/09 06:32:55;;;;;;;48.47;13.25;;;7.70;99.90;;;;;;4982949;28;20049;-77
2022/05/09 06:35:24;;;;;;;19.83;8.80;;;7.90;99.90;;;;;;4971614;28;20045;-77
2022/05/09 06:38:05;;;;;;;19.10;8.05;;;8.00;99.90;;;;;;4978893;28;20048;-77
2022/05/09 06:40:32;;;;;;;16.52;8.43;;;8.20;99.90;;;;;;4986983;28;20045;-77
2022/05/09 06:42:59;;;;;;;21.40;8.88;;;8.30;99.90;;;;;;4992900;28;20045;-78
2022/05/09 06:45:26;;;;;;;24.38;9.02;;;8.50;99.90;;;;;;4982685;28;20056;-78
2022/05/09 06:47:53;;;;;;;20.90;8.57;;;8.70;99.90;;;;;;4997741;28;20037;-79
2022/05/09 06:50:21;;;;;;;23.98;8.45;;;8.80;99.90;;;;;;4992298;28;20065;-78
2022/05/09 06:52:47;;;;;;;19.80;8.88;;;9.00;99.90;;;;;;4983953;28;20172;-78
2022/05/09 06:55:14;;;;;;;26.42;9.05;;;9.20;99.90;;;;;;4955964;28;20044;-78
2022/05/09 06:57:41;;;;;;;20.65;8.02;;;9.30;99.90;;;;;;5005373;28;20046;-78
2022/05/09 07:00:11;;;;;;;17.27;7.60;;;9.50;99.90;;;;;;4985367;28;20049;-78
2022/05/09 07:02:37;;;;;;;20.08;8.43;;;9.60;99.90;;;;;;5003520;28;20049;-78
2022/05/09 07:05:05;;;;;;;22.33;7.22;;;9.80;99.90;;;;;;4974790;28;20049;-79
2022/05/09 07:07:31;;;;;;;18.33;7.63;;;10.00;99.90;;;;;;5004744;28;20495;-79
2022/05/09 07:09:56;;;;;;;19.33;7.85;;;10.30;99.90;;;;;;4970587;28;20131;-78
2022/05/09 07:12:22;;;;;;;17.98;7.75;;;10.50;99.90;;;;;;4987602;28;20239;-79
2022/05/09 07:14:48;;;;;;;21.77;7.97;;;10.80;99.90;;;;;;4955842;28;20041;-78
2022/05/09 07:17:14;;;;;;;23.58;7.78;;;11.00;99.90;;;;;;4984551;28;20045;-79
2022/05/09 07:19:40;;;;;;;14.57;6.65;;;11.30;99.90;;;;;;4986830;28;20044;-79
2022/05/09 07:22:05;;;;;;;21.40;6.47;;;11.60;99.90;;;;;;5003040;28;20045;-78
2022/05/09 07:24:31;;;;;;;20.13;7.65;;;12.00;99.90;;;;;;5005288;28;20037;-79
2022/05/09 07:26:57;;;;;;;15.50;6.50;;;12.20;99.90;;;;;;4986243;28;20033;-78
2022/05/09 07:29:23;;;;;;;18.08;7.35;;;12.40;99.90;;;;;;4968888;28;20045;-78
2022/05/09 07:31:49;;;;;;;17.27;6.22;;;12.70;99.90;;;;;;4993012;28;20116;-78
2022/05/09 07:34:14;;;;;;;15.82;6.78;;;12.90;99.90;;;;;;4990836;28;20045;-79
2022/05/09 07:36:41;;;;;;;13.70;7.10;;;13.00;99.90;;;;;;4979679;28;20041;-78
2022/05/09 07:39:07;;;;;;;15.85;7.03;;;13.30;99.90;;;;;;4963960;28;20045;-78
2022/05/09 07:41:33;;;;;;;14.45;6.15;;;13.50;99.90;;;;;;5000074;28;20045;-78
2022/05/09 07:44:00;;;;;;;17.40;6.60;;;13.70;99.90;;;;;;5006946;28;20125;-78
2022/05/09 07:46:25;;;;;;;11.63;6.25;;;13.80;99.90;;;;;;4952147;28;20476;-78
2022/05/09 07:48:52;;;;;;;13.82;6.30;;;13.90;99.90;;;;;;4983010;28;20096;-78
2022/05/09 07:51:19;;;;;;;19.27;7.28;;;14.00;99.90;;;;;;4964834;28;20049;-78
2022/05/09 07:53:45;;;;;;;13.15;6.65;;;14.10;99.90;;;;;;4978784;28;20392;-78
2022/05/09 07:56:11;;;;;;;13.00;6.40;;;14.30;99.90;;;;;;4948239;28;20038;-78
2022/05/09 07:58:36;;;;;;;14.20;5.70;;;14.40;99.90;;;;;;4966005;28;20034;-77
2022/05/09 08:01:04;;;;;;;17.33;6.32;;;14.60;99.90;;;;;;4962827;28;20534;-78
2022/05/09 08:03:32;;;;;;;15.68;5.75;;;14.80;99.90;;;;;;4980345;28;20057;-77
2022/05/09 08:05:59;;;;;;;12.60;5.65;;;15.00;99.90;;;;;;4982198;28;20072;-78
2022/05/09 08:08:28;;;;;;;11.68;5.30;;;15.10;99.90;;;;;;4963831;28;20428;-78
2022/05/09 08:10:56;;;;;;;17.30;6.10;;;15.20;99.90;;;;;;4980406;28;20407;-78
2022/05/09 08:13:22;;;;;;;14.05;6.28;;;15.40;99.90;;;;;;4995664;28;20117;-77
2022/05/09 08:15:51;;;;;;;13.23;5.68;;;15.50;99.90;;;;;;4947708;28;20460;-78
2022/05/09 08:18:19;;;;;;;14.50;5.63;;;15.60;99.00;;;;;;4975914;28;20445;-77
2022/05/09 08:20:46;;;;;;;16.10;5.43;;;15.80;99.40;;;;;;4979122;28;20112;-76
2022/05/09 08:23:19;;;;;;;14.02;5.63;;;16.10;99.30;;;;;;4982299;28;20458;-77
2022/05/09 08:25:46;;;;;;;;;;;16.10;98.00;;;;;;4966618;28;20100;-76
2022/05/09 08:28:14;;;;;;;12.23;5.32;;;16.20;96.40;;;;;;4980470;28;20279;-77
2022/05/09 08:30:41;;;;;;;11.77;5.25;;;16.30;97.80;;;;;;4984594;28;20410;-76
2022/05/09 08:33:15;;;;;;;15.27;5.10;;;16.50;97.80;;;;;;4981391;28;20049;-72
2022/05/09 08:35:46;;;;;;;12.55;5.85;;;16.70;95.70;;;;;;4983101;28;20111;-72
2022/05/09 08:38:13;;;;;;;9.93;5.00;;;16.90;96.60;;;;;;4966459;28;20493;-77
2022/05/09 08:40:57;;;;;;;13.55;5.32;;;17.10;95.30;;;;;;4984457;28;20045;-75
2022/05/09 08:43:30;;;;;;;10.73;5.10;;;17.20;94.40;;;;;;4982571;28;20045;-75
2022/05/09 08:46:12;;;;;;;10.90;4.43;;;17.30;94.40;;;;;;4965636;28;20042;-75
2022/05/09 08:48:55;;;;;;;13.57;4.97;;;17.50;94.60;;;;;;4982495;28;20046;-75
2022/05/09 08:51:39;;;;;;;12.10;4.90;;;17.70;93.10;;;;;;4982237;28;20472;-75
2022/05/09 08:54:09;;;;;;;11.43;4.35;;;17.80;91.90;;;;;;4986054;28;20839;-76
2022/05/09 08:56:36;;;;;;;20.58;4.60;;;17.90;91.70;;;;;;4982897;28;20487;-75
2022/05/09 08:59:05;;;;;;;13.23;4.22;;;18.10;89.90;;;;;;4951035;28;20056;-75
2022/05/09 09:01:47;;;;;;;10.18;4.00;;;18.20;87.80;;;;;;4981771;28;20040;-75
2022/05/09 09:04:29;;;;;;;14.03;4.57;;;18.40;87.70;;;;;;4981840;28;20058;-76
2022/05/09 09:07:17;;;;;;;9.68;4.10;;;18.60;87.40;;;;;;4987307;28;20479;-76
2022/05/09 09:10:06;;;;;;;7.80;4.28;;;18.70;83.20;;;;;;4987697;28;20059;-76
2022/05/09 09:12:59;;;;;;;10.48;4.65;;;18.70;82.00;;;;;;4969784;28;20037;-75
2022/05/09 09:15:40;;;;;;;14.10;4.40;;;18.80;84.10;;;;;;4966945;28;20045;-76
2022/05/09 09:18:23;;;;;;;15.52;4.15;;;19.00;83.20;;;;;;4966123;28;20562;-76
2022/05/09 09:21:02;;;;;;;12.35;4.53;;;19.10;80.30;;;;;;5000277;28;20541;-76
2022/05/09 09:23:59;;;;;;;10.43;4.18;;;19.20;75.50;;;;;;4986199;28;20092;-76
2022/05/09 09:26:49;;;;;;;9.30;3.75;;;19.00;67.10;;;;;;4986617;28;20046;-76
2022/05/09 09:29:23;;;;;;;9.60;3.38;;;18.90;70.80;;;;;;4987515;28;20438;-76
2022/05/09 09:31:55;;;;;;;8.90;4.20;;;19.20;70.90;;;;;;4971073;28;20046;-76
2022/05/09 09:34:27;;;;;;;11.60;4.28;;;19.40;72.10;;;;;;4969304;28;20339;-76
2022/05/09 09:37:05;;;;;;;8.05;3.38;;;19.60;72.40;;;;;;4971355;28;20037;-76
2022/05/09 09:39:31;;;;;;;15.43;4.25;;;19.80;71.20;;;;;;4971112;28;20095;-76
2022/05/09 09:41:57;;;;;;;15.35;4.07;;;20.00;72.30;;;;;;4954848;28;20077;-72
2022/05/09 09:44:26;;;;;;;17.73;4.30;;;20.10;71.80;;;;;;4954223;28;20074;-72
2022/05/09 09:47:11;;;;;;;12.23;3.90;;;20.20;69.60;;;;;;4987100;28;20046;-71
2022/05/09 09:49:42;;;;;;;12.18;3.28;;;20.30;68.60;;;;;;4979761;28;20073;-71
2022/05/09 09:52:14;;;;;;;10.77;3.63;;;20.40;68.20;;;;;;4970336;28;20092;-72
2022/05/09 09:54:49;;;;;;;7.00;3.50;;;20.50;66.20;;;;;;4970970;28;20117;-72
2022/05/09 09:57:20;;;;;;;9.15;3.42;;;20.60;67.00;;;;;;4986965;28;20105;-72
2022/05/09 09:59:46;;;;;;;10.63;3.50;;;20.80;65.00;;;;;;4987062;28;20038;-72
2022/05/09 10:02:28;;;;;;;8.18;3.17;;;20.80;64.60;;;;;;4987734;28;20056;-71
2022/05/09 10:04:56;;;;;;;10.23;3.60;;;21.00;65.40;;;;;;4986324;28;20072;-72
2022/05/09 10:07:31;;;;;;;11.07;3.58;;;21.10;65.00;;;;;;5002601;28;21023;-72
2022/05/09 10:10:16;;;;;;;8.90;3.00;;;21.20;62.30;;;;;;4986795;28;20108;-72
2022/05/09 10:12:48;;;;;;;8.13;3.22;;;21.30;62.10;;;;;;4985482;28;20026;-72
2022/05/09 10:15:22;;;;;;;9.23;3.10;;;21.40;62.90;;;;;;4985173;28;20033;-72
2022/05/09 10:17:48;;;;;;;12.18;3.15;;;21.60;63.50;;;;;;4985887;28;20060;-72
2022/05/09 10:20:34;;;;;;;8.43;2.65;;;21.60;61.50;;;;;;4986762;28;20121;-71
2022/05/09 10:26:03;;;;;;;10.20;2.85;;;21.50;61.10;;;;;;4982830;28;20057;-71
2022/05/09 10:28:33;;;;;;;20.05;3.20;;;21.70;61.40;;;;;;4969248;28;20049;-72
2022/05/09 10:31:12;;;;;;;8.63;2.75;;;21.90;62.00;;;;;;4986638;28;20048;-71
2022/05/09 10:34:05;;;;;;;14.02;2.97;;;22.00;60.20;;;;;;4985954;28;20487;-72
2022/05/09 10:36:50;;;;;;;12.18;2.80;;;22.10;62.10;;;;;;4971048;28;20487;-72
2022/05/09 10:39:31;;;;;;;6.43;2.53;;;22.30;62.20;;;;;;5000714;28;20048;-72
2022/05/09 10:42:03;;;;;;;12.43;2.70;;;22.40;57.50;;;;;;4984205;28;20121;-72
2022/05/09 10:44:39;;;;;;;10.80;2.97;;;22.40;59.10;;;;;;4986501;28;20117;-72
2022/05/09 10:47:24;;;;;;;8.75;3.03;;;22.50;59.30;;;;;;4970854;28;20034;-72
2022/05/09 10:50:16;;;;;;;7.05;2.55;;;22.70;58.80;;;;;;4987935;28;20397;-72
2022/05/09 10:52:55;;;;;;;7.93;2.80;;;22.90;57.60;;;;;;4952192;28;20038;-72
2022/05/09 10:55:30;;;;;;;9.85;2.80;;;23.00;58.90;;;;;;4970512;28;20053;-72
2022/05/09 10:58:05;;;;;;;8.85;3.15;;;22.90;57.70;;;;;;4969380;28;20042;-72
2022/05/09 11:00:34;;;;;;;6.47;3.10;;;23.10;59.10;;;;;;4969932;28;20034;-72
2022/05/09 11:03:27;;;;;;;6.95;2.97;;;23.20;58.20;;;;;;5001687;28;20042;-72
2022/05/09 11:06:15;;;;;;;7.60;3.00;;;23.20;59.20;;;;;;4986303;28;20088;-72
2022/05/09 11:09:27;;;;;;;7.43;3.08;;;23.40;59.20;;;;;;4969327;28;20046;-73
2022/05/09 11:12:01;;;;;;;6.38;3.22;;;22.80;56.40;;;;;;4972975;28;20492;-73
2022/05/09 11:14:49;;;;;;;8.50;3.13;;;23.10;58.40;;;;;;4985074;28;20042;-73
2022/05/09 11:17:28;;;;;;;8.85;3.40;;;23.30;57.40;;;;;;4968577;28;20048;-73
2022/05/09 11:20:05;;;;;;;8.35;3.28;;;23.30;57.00;;;;;;4985293;28;20180;-73
2022/05/09 11:23:05;;;;;;;11.82;3.95;;;23.40;57.70;;;;;;4984004;28;20052;-73
2022/05/09 11:25:50;;;;;;;9.45;3.53;;;23.60;56.40;;;;;;4996167;28;20563;-73
2022/05/09 11:28:37;;;;;;;8.93;3.33;;;23.70;57.70;;;;;;4982088;28;20100;-73
2022/05/09 11:31:05;;;;;;;13.88;3.40;;;23.70;57.20;;;;;;4982329;28;20069;-73
2022/05/09 11:33:51;;;;;;;8.20;3.20;;;23.60;57.10;;;;;;4964110;28;21811;-72
2022/05/09 11:36:19;;;;;;;10.25;3.53;;;23.60;58.10;;;;;;4968201;28;20065;-72
2022/05/09 11:39:11;;;;;;;12.35;3.38;;;23.90;59.40;;;;;;4967500;28;20038;-73
2022/05/09 11:41:58;;;;;;;12.55;3.70;;;23.90;57.60;;;;;;4982592;28;20165;-73
2022/05/09 11:44:39;;;;;;;13.70;3.63;;;23.90;57.80;;;;;;4981692;28;20346;-74
2022/05/09 11:47:23;;;;;;;8.13;3.28;;;23.80;55.90;;;;;;4998560;28;20132;-74
2022/05/09 11:49:49;;;;;;;6.65;3.25;;;23.90;55.90;;;;;;4983424;28;20041;-73
2022/05/09 11:52:28;;;;;;;9.82;3.67;;;23.80;57.50;;;;;;4964488;28;20530;-73
2022/05/09 11:55:03;;;;;;;8.85;3.40;;;24.00;57.40;;;;;;4983550;28;20046;-75
2022/05/09 11:57:33;;;;;;;9.38;3.80;;;24.10;57.40;;;;;;5000680;28;20525;-73
2022/05/09 12:00:04;;;;;;;6.68;3.35;;;24.30;56.70;;;;;;5001849;28;20045;-73
2022/05/09 12:02:44;;;;;;;9.45;3.20;;;24.30;57.10;;;;;;4984968;28;20044;-73
2022/05/09 12:05:25;;;;;;;7.93;3.40;;;24.40;56.70;;;;;;4985598;28;20128;-73
2022/05/09 12:08:12;;;;;;;11.32;3.55;;;24.60;58.10;;;;;;4971136;28;20391;-73
2022/05/09 12:10:40;;;;;;;11.07;3.90;;;24.90;56.70;;;;;;4972373;28;20533;-73
2022/05/09 12:13:11;;;;;;;12.88;4.18;;;24.90;55.50;;;;;;4989044;28;20030;-73
2022/05/09 12:15:40;;;;;;;4.95;3.33;;;24.80;56.40;;;;;;5005078;28;20052;-73
2022/05/09 12:18:18;;;;;;;7.63;4.55;;;24.70;56.10;;;;;;4989127;28;20293;-73
2022/05/09 12:20:46;;;;;;;6.53;2.92;;;24.80;56.10;;;;;;4984903;28;20037;-72
2022/05/09 12:23:41;;;;;;;7.65;3.22;;;25.00;56.80;;;;;;4968043;28;20041;-72
2022/05/09 12:26:08;;;;;;;8.30;3.20;;;25.10;56.60;;;;;;4966130;28;20041;-72
2022/05/09 12:28:39;;;;;;;8.85;3.28;;;25.10;55.80;;;;;;4966566;28;20077;-72
2022/05/09 12:31:25;;;;;;;17.00;4.88;;;25.00;56.00;;;;;;4983563;28;20113;-72
2022/05/09 12:33:52;;;;;;;7.05;3.10;;;24.70;54.70;;;;;;4984131;28;20041;-73
2022/05/09 12:36:28;;;;;;;9.07;3.65;;;24.50;55.30;;;;;;5001554;28;20042;-73
2022/05/09 12:38:59;;;;;;;8.93;2.95;;;24.70;56.50;;;;;;4984554;28;20042;-72
2022/05/09 12:41:30;;;;;;;9.23;2.97;;;24.90;55.40;;;;;;4984891;28;20041;-73
2022/05/09 12:44:03;;;;;;;7.35;3.33;;;24.90;54.80;;;;;;4971503;28;20056;-73
2022/05/09 12:46:38;;;;;;;5.53;2.88;;;24.90;56.00;;;;;;4986017;28;20121;-72
2022/05/09 12:49:07;;;;;;;9.90;2.97;;;24.90;57.30;;;;;;4983695;28;20117;-72
2022/05/09 12:51:40;;;;;;;6.38;2.80;;;25.00;57.10;;;;;;4984757;28;20034;-73
2022/05/09 12:54:09;;;;;;;8.73;3.53;;;25.00;56.30;;;;;;4968173;28;20029;-74
2022/05/09 12:56:40;;;;;;;8.07;3.40;;;25.20;56.10;;;;;;4983888;28;20072;-73
2022/05/09 12:59:08;;;;;;;9.27;4.88;;;25.20;55.30;;;;;;4951911;28;20045;-73
2022/05/09 13:01:40;;;;;;;7.00;3.70;;;25.20;54.70;;;;;;4982371;28;20077;-73
2022/05/09 13:04:18;;;;;;;7.30;3.17;;;25.30;54.60;;;;;;4950122;28;20658;-73
2022/05/09 13:06:46;;;;;;;7.13;3.20;;;25.30;54.40;;;;;;4983485;28;20602;-73
2022/05/09 13:09:19;;;;;;;5.93;3.40;;;25.50;54.20;;;;;;4983528;28;20104;-73
2022/05/09 13:11:56;;;;;;;6.88;2.95;;;25.50;53.00;;;;;;4984550;28;20042;-73
2022/05/09 13:14:47;;;;;;;6.05;2.97;;;25.50;54.00;;;;;;4981707;28;20117;-73
2022/05/09 13:17:24;;;;;;;6.38;3.53;;;25.60;52.40;;;;;;4983221;28;20048;-73